Time;durP1;ratioP1;P1;durP2;ratioP2;P2;SDS_P1;SDS_P2;PMS_P1;PMS_P2;Temp;Humidity;BMP_temperature;BMP_pressure;BME280_temperature;BME280_humidity;BME280_pressure;Samples;Min_cycle;Max_cycle;Signal;HPM_P1;HPM_P2
2020/12/09 00:02:53;;;;;;;104.83;53.90;;;;;-0.30;100370.00;;;;10157637;29;20194;-86
2020/12/09 00:07:55;;;;;;;106.90;53.50;;;;;-0.20;100380.00;;;;10151526;29;20236;-86
2020/12/09 00:12:57;;;;;;;95.90;49.93;;;;;-0.10;100388.00;;;;10145510;29;20265;-86
2020/12/09 00:17:59;;;;;;;113.03;54.33;;;;;0.00;100379.00;;;;10140402;29;20218;-86
2020/12/09 00:23:01;;;;;;;118.40;58.80;;;;;0.10;100385.00;;;;10151653;29;20227;-87
2020/12/09 00:28:04;;;;;;;107.17;51.93;;;;;0.10;100386.00;;;;10161312;29;20230;-84
2020/12/09 00:33:06;;;;;;;98.43;48.60;;;;;0.20;100384.00;;;;10157684;29;20199;-86
2020/12/09 00:38:09;;;;;;;112.60;49.13;;;;;0.30;100381.00;;;;10155057;29;20681;-85
2020/12/09 00:43:11;;;;;;;129.53;52.13;;;;;0.40;100392.00;;;;10142613;29;20206;-86
2020/12/09 00:48:13;;;;;;;131.77;52.87;;;;;0.50;100388.00;;;;10150371;29;20301;-85
2020/12/09 00:53:15;;;;;;;123.30;53.47;;;;;0.50;100379.00;;;;10140595;29;20790;-85
2020/12/09 00:58:18;;;;;;;120.23;51.93;;;;;0.50;100384.00;;;;10145720;29;20241;-85
2020/12/09 01:03:20;;;;;;;125.40;53.10;;;;;0.40;100386.00;;;;10147284;29;20398;-86
2020/12/09 01:08:22;;;;;;;124.00;49.93;;;;;0.50;100403.00;;;;10140458;29;20238;-85
2020/12/09 01:13:24;;;;;;;129.03;50.23;;;;;0.60;100400.00;;;;10136002;29;20199;-85
2020/12/09 01:18:26;;;;;;;134.10;52.37;;;;;0.60;100406.00;;;;10162823;29;20298;-85
2020/12/09 01:23:28;;;;;;;135.17;51.47;;;;;0.70;100407.00;;;;10136268;29;20214;-85
2020/12/09 01:28:30;;;;;;;147.90;51.20;;;;;0.80;100392.00;;;;10146977;29;20235;-85
2020/12/09 01:33:32;;;;;;;143.10;51.20;;;;;0.90;100408.00;;;;10147343;29;20207;-85
2020/12/09 01:38:34;;;;;;;136.07;48.87;;;;;1.10;100397.00;;;;10143581;29;20321;-85
2020/12/09 01:43:45;;;;;;;117.97;45.33;;;;;1.20;100395.00;;;;10142169;29;20215;-85
2020/12/09 01:48:47;;;;;;;128.53;45.33;;;;;1.20;100391.00;;;;10153144;29;20233;-85
2020/12/09 01:53:53;;;;;;;124.07;43.53;;;;;1.30;100405.00;;;;10160040;29;20227;-85
2020/12/09 01:58:55;;;;;;;115.87;42.73;;;;;1.30;100392.00;;;;10141300;29;20222;-85
2020/12/09 02:03:58;;;;;;;121.87;42.97;;;;;1.30;100394.00;;;;10158433;29;20815;-85
2020/12/09 02:09:00;;;;;;;116.60;41.93;;;;;1.30;100398.00;;;;10154960;29;20225;-85
2020/12/09 02:14:02;;;;;;;103.97;39.07;;;;;1.40;100394.00;;;;10127538;29;20199;-85
2020/12/09 02:19:04;;;;;;;105.10;39.43;;;;;1.40;100394.00;;;;10154313;29;20214;-84
2020/12/09 02:24:06;;;;;;;99.37;39.17;;;;;1.40;100390.00;;;;10163944;29;20207;-84
2020/12/09 02:29:09;;;;;;;95.10;39.63;;;;;1.40;100391.00;;;;10170663;29;20688;-85
2020/12/09 02:34:11;;;;;;;97.40;37.97;;;;;1.40;100396.00;;;;10161891;29;20202;-85
2020/12/09 02:39:13;;;;;;;104.77;39.60;;;;;1.40;100383.00;;;;10151059;29;20223;-86
2020/12/09 02:44:15;;;;;;;96.83;35.77;;;;;1.40;100393.00;;;;10139203;29;20732;-85
2020/12/09 02:49:18;;;;;;;102.57;37.80;;;;;1.50;100394.00;;;;10155042;29;20242;-84
2020/12/09 02:54:20;;;;;;;99.37;36.17;;;;;1.50;100382.00;;;;10166465;29;20255;-85
2020/12/09 02:59:22;;;;;;;86.30;35.87;;;;;1.50;100385.00;;;;10153082;29;20254;-85
2020/12/09 03:04:24;;;;;;;91.33;35.63;;;;;1.50;100397.00;;;;10164681;29;20233;-84
2020/12/09 03:09:26;;;;;;;95.40;35.37;;;;;1.50;100399.00;;;;10157577;29;20262;-85
2020/12/09 03:14:29;;;;;;;85.20;33.40;;;;;1.50;100397.00;;;;10166688;29;20200;-84
2020/12/09 03:19:31;;;;;;;77.43;31.13;;;;;1.50;100399.00;;;;10149429;29;20258;-85
2020/12/09 03:24:33;;;;;;;60.97;24.63;;;;;1.50;100399.00;;;;10158660;29;20220;-85
2020/12/09 03:29:36;;;;;;;57.07;25.07;;;;;1.40;100404.00;;;;10151426;29;20222;-85
2020/12/09 03:34:38;;;;;;;57.50;25.63;;;;;1.40;100407.00;;;;10153851;29;20202;-85
2020/12/09 03:39:41;;;;;;;56.07;24.60;;;;;1.30;100408.00;;;;10158430;29;20628;-85
2020/12/09 03:44:43;;;;;;;58.33;26.00;;;;;1.30;100396.00;;;;10162937;23;20230;-77
2020/12/09 03:49:45;;;;;;;54.27;24.27;;;;;1.30;100396.00;;;;10159532;29;20234;-77
2020/12/09 03:54:48;;;;;;;58.13;24.80;;;;;1.20;100400.00;;;;10190762;29;20210;-77
2020/12/09 03:59:50;;;;;;;50.00;24.60;;;;;1.10;100393.00;;;;10171844;29;20258;-76
2020/12/09 04:04:52;;;;;;;60.53;26.90;;;;;1.10;100395.00;;;;10159303;29;20219;-76
2020/12/09 04:09:54;;;;;;;50.27;25.40;;;;;1.10;100405.00;;;;10147047;29;20360;-76
2020/12/09 04:14:57;;;;;;;58.50;26.03;;;;;1.00;100397.00;;;;10155349;29;20294;-76
2020/12/09 04:19:59;;;;;;;52.67;23.67;;;;;1.00;100404.00;;;;10169729;29;20234;-77
2020/12/09 04:25:01;;;;;;;52.87;24.57;;;;;1.00;100401.00;;;;10158565;29;20310;-76
2020/12/09 04:30:04;;;;;;;59.97;25.50;;;;;1.00;100405.00;;;;10161515;29;20318;-76
2020/12/09 04:35:08;;;;;;;52.17;24.63;;;;;1.00;100400.00;;;;10149798;29;20221;-76
2020/12/09 04:40:11;;;;;;;50.83;24.50;;;;;1.00;100408.00;;;;10164885;29;20696;-75
2020/12/09 04:45:13;;;;;;;54.67;24.97;;;;;1.00;100407.00;;;;10163251;29;20333;-76
2020/12/09 04:50:15;;;;;;;49.20;22.77;;;;;1.00;100411.00;;;;10188314;29;20254;-77
2020/12/09 04:55:18;;;;;;;51.77;23.77;;;;;1.00;100430.00;;;;10166604;29;20273;-75
2020/12/09 05:00:21;;;;;;;52.37;21.77;;;;;0.90;100432.00;;;;10171156;29;20230;-76
2020/12/09 05:05:24;;;;;;;53.70;24.33;;;;;0.90;100428.00;;;;10169578;29;20601;-76
2020/12/09 05:10:26;;;;;;;52.83;24.73;;;;;0.80;100427.00;;;;10164824;29;20207;-76
2020/12/09 05:15:30;;;;;;;53.53;23.87;;;;;0.80;100417.00;;;;10187453;29;20737;-75
2020/12/09 05:20:34;;;;;;;55.00;25.23;;;;;0.80;100427.00;;;;10147415;29;20250;-76
2020/12/09 05:25:38;;;;;;;53.17;25.40;;;;;0.80;100431.00;;;;10161696;29;20558;-76
2020/12/09 05:30:42;;;;;;;46.30;23.13;;;;;0.80;100443.00;;;;10148298;29;20202;-76
2020/12/09 05:36:14;;;;;;;49.60;24.07;;;;;0.80;100443.00;;;;10149323;29;20238;-76
2020/12/09 05:41:16;;;;;;;46.53;22.27;;;;;0.70;100462.00;;;;10149746;29;20801;-77
2020/12/09 05:46:18;;;;;;;43.83;21.83;;;;;0.70;100460.00;;;;10179155;29;20262;-78
2020/12/09 05:51:21;;;;;;;46.70;21.00;;;;;0.70;100457.00;;;;10140629;29;20229;-76
2020/12/09 05:56:26;;;;;;;46.17;21.57;;;;;0.70;100453.00;;;;10155084;29;20222;-79
2020/12/09 06:07:07;;;;;;;42.27;20.43;;;;;0.70;100461.00;;;;10185615;23;20237;-73
2020/12/09 06:12:09;;;;;;;43.30;21.20;;;;;0.70;100459.00;;;;10176186;29;20209;-72
2020/12/09 06:17:13;;;;;;;44.50;22.80;;;;;0.70;100459.00;;;;10200020;29;20202;-73
2020/12/09 06:22:16;;;;;;;42.93;20.73;;;;;0.60;100461.00;;;;10162311;29;20217;-73
2020/12/09 06:27:18;;;;;;;52.53;24.10;;;;;0.60;100448.00;;;;10179145;29;20235;-74
2020/12/09 06:32:20;;;;;;;45.27;22.97;;;;;0.50;100452.00;;;;10196005;29;20556;-74
2020/12/09 06:37:22;;;;;;;45.83;22.23;;;;;0.50;100463.00;;;;10176028;29;20253;-73
2020/12/09 06:42:24;;;;;;;40.77;21.87;;;;;0.50;100457.00;;;;10172687;29;20209;-73
2020/12/09 06:47:26;;;;;;;47.47;22.33;;;;;0.50;100457.00;;;;10186042;29;20261;-73
2020/12/09 06:52:31;;;;;;;45.90;22.30;;;;;0.50;100449.00;;;;10184530;29;20678;-73
2020/12/09 07:03:31;;;;;;;47.17;22.33;;;;;0.40;100461.00;;;;11003413;23;20238;-88
2020/12/09 07:08:43;;;;;;;46.10;20.50;;;;;0.40;100451.00;;;;10167155;29;20245;-84
2020/12/09 07:13:47;;;;;;;46.70;22.77;;;;;0.30;100453.00;;;;10138072;29;20219;-81
2020/12/09 07:18:49;;;;;;;48.50;24.37;;;;;0.30;100464.00;;;;10157886;29;20258;-84
2020/12/09 07:23:59;;;;;;;48.60;22.83;;;;;0.30;100463.00;;;;10161279;29;20226;-86
2020/12/09 07:29:01;;;;;;;48.40;22.40;;;;;0.40;100466.00;;;;10164573;29;20283;-87
2020/12/09 07:34:04;;;;;;;44.37;22.70;;;;;0.40;100474.00;;;;10151365;29;20227;-85
2020/12/09 07:39:06;;;;;;;49.10;22.67;;;;;0.40;100464.00;;;;10157435;29;20199;-86
2020/12/09 07:44:08;;;;;;;48.13;19.43;;;;;0.30;100470.00;;;;10146276;29;20222;-83
2020/12/09 07:49:13;;;;;;;57.33;23.07;;;;;0.30;100476.00;;;;10170673;29;20230;-84
2020/12/09 07:54:16;;;;;;;39.50;19.50;;;;;0.30;100477.00;;;;10172410;29;21082;-86
2020/12/09 07:59:18;;;;;;;50.13;21.13;;;;;0.30;100475.00;;;;10172258;29;20566;-86
2020/12/09 08:04:27;;;;;;;50.33;22.30;;;;;0.40;100482.00;;;;10146766;29;20222;-83
2020/12/09 08:09:29;;;;;;;46.70;20.70;;;;;0.40;100480.00;;;;10171944;29;20280;-80
2020/12/09 08:14:37;;;;;;;52.57;23.13;;;;;0.50;100476.00;;;;10161856;29;20278;-83
2020/12/09 08:19:58;;;;;;;57.10;25.10;;;;;0.60;100474.00;;;;10175485;29;20251;-85
2020/12/09 08:25:09;;;;;;;55.93;24.20;;;;;0.60;100466.00;;;;10149330;29;20207;-81
2020/12/09 08:30:33;;;;;;;53.80;24.57;;;;;0.70;100464.00;;;;10156750;29;20245;-81
2020/12/09 08:35:52;;;;;;;63.20;24.80;;;;;0.80;100454.00;;;;10167715;29;20214;-84
2020/12/09 08:40:57;;;;;;;48.20;22.20;;;;;0.90;100461.00;;;;10150116;29;20222;-85
2020/12/09 08:45:59;;;;;;;54.80;25.23;;;;;0.90;100467.00;;;;10162584;29;20208;-84
2020/12/09 08:51:02;;;;;;;55.70;23.50;;;;;0.90;100464.00;;;;10161188;29;20248;-86
2020/12/09 08:56:04;;;;;;;62.73;27.20;;;;;0.90;100466.00;;;;10157266;29;20704;-82
2020/12/09 09:01:06;;;;;;;65.13;26.23;;;;;1.00;100469.00;;;;10194479;29;20222;-81
2020/12/09 09:06:08;;;;;;;51.70;21.70;;;;;1.10;100470.00;;;;10169238;29;20301;-84
2020/12/09 09:11:10;;;;;;;49.83;22.10;;;;;1.20;100466.00;;;;10142905;29;20234;-83
2020/12/09 09:16:13;;;;;;;51.13;22.93;;;;;1.20;100457.00;;;;10151262;29;20213;-82
2020/12/09 09:21:15;;;;;;;50.33;21.37;;;;;1.30;100466.00;;;;10162533;29;20347;-79
2020/12/09 09:26:17;;;;;;;41.07;19.20;;;;;1.20;100474.00;;;;10167748;29;20318;-85
2020/12/09 09:31:20;;;;;;;49.03;21.13;;;;;1.30;100463.00;;;;10164964;29;20222;-84
2020/12/09 09:36:30;;;;;;;46.57;21.77;;;;;1.40;100471.00;;;;10143896;29;20263;-85
2020/12/09 09:41:33;;;;;;;45.87;21.07;;;;;1.60;100472.00;;;;10147414;29;21179;-84
2020/12/09 09:46:36;;;;;;;47.80;24.10;;;;;1.70;100475.00;;;;10142165;29;22156;-83
2020/12/09 09:51:38;;;;;;;46.97;21.30;;;;;1.80;100472.00;;;;10156306;29;20223;-83
2020/12/09 09:56:42;;;;;;;46.10;20.10;;;;;2.10;100468.00;;;;10154588;29;20217;-82
2020/12/09 10:01:44;;;;;;;37.73;18.37;;;;;2.20;100453.00;;;;10147706;29;20882;-83
2020/12/09 10:06:47;;;;;;;42.27;21.23;;;;;2.10;100448.00;;;;10132008;29;20226;-81
2020/12/09 10:11:49;;;;;;;42.23;20.13;;;;;2.10;100451.00;;;;10151859;29;20226;-84
2020/12/09 10:16:51;;;;;;;39.77;20.27;;;;;2.20;100443.00;;;;10132731;23;20234;-75
2020/12/09 10:21:53;;;;;;;41.57;19.13;;;;;2.40;100442.00;;;;10146717;29;20212;-75
2020/12/09 10:26:55;;;;;;;36.63;17.73;;;;;2.40;100443.00;;;;10150995;29;20678;-75
2020/12/09 10:31:57;;;;;;;41.87;19.17;;;;;2.50;100445.00;;;;10109278;29;62028;-75
2020/12/09 10:39:59;;;;;;;32.17;16.10;;;;;2.60;100450.00;;;;10482122;27;117282;-75
2020/12/09 10:45:01;;;;;;;33.90;16.10;;;;;2.80;100440.00;;;;10419386;28;20230;-75
2020/12/09 10:50:05;;;;;;;29.37;13.80;;;;;3.10;100434.00;;;;10424766;28;20282;-75
2020/12/09 10:55:07;;;;;;;29.43;15.17;;;;;3.20;100424.00;;;;10412834;28;20195;-75
2020/12/09 11:00:09;;;;;;;27.77;13.80;;;;;3.30;100418.00;;;;10401789;28;20211;-75
2020/12/09 11:05:19;;;;;;;23.60;11.53;;;;;3.60;100413.00;;;;10385906;28;20269;-75
2020/12/09 11:10:21;;;;;;;22.73;11.40;;;;;3.70;100411.00;;;;10434086;28;20235;-75
2020/12/09 11:15:23;;;;;;;22.33;12.13;;;;;3.70;100403.00;;;;10422941;28;20242;-75
2020/12/09 11:20:26;;;;;;;21.03;10.47;;;;;3.70;100399.00;;;;10442962;28;20295;-75
2020/12/09 11:25:28;;;;;;;18.43;10.83;;;;;3.90;100412.00;;;;10467374;28;20277;-75
2020/12/09 11:30:31;;;;;;;20.43;11.27;;;;;4.10;100401.00;;;;10462037;28;20194;-77
2020/12/09 11:35:33;;;;;;;19.33;11.03;;;;;4.10;100400.00;;;;10458374;28;20221;-79
2020/12/09 11:40:38;;;;;;;18.17;9.53;;;;;4.10;100401.00;;;;10450573;28;20202;-78
2020/12/09 11:45:40;;;;;;;19.37;10.30;;;;;4.00;100406.00;;;;10435824;28;20226;-79
2020/12/09 11:50:42;;;;;;;17.47;9.87;;;;;4.00;100409.00;;;;10426635;28;20245;-79
2020/12/09 11:55:45;;;;;;;21.63;9.23;;;;;3.90;100399.00;;;;10396667;28;20238;-79
2020/12/09 12:00:47;;;;;;;16.90;9.37;;;;;3.80;100397.00;;;;10389992;28;20542;-79
2020/12/09 12:05:53;;;;;;;17.03;9.17;;;;;3.80;100408.00;;;;10404397;28;20192;-78
2020/12/09 12:10:55;;;;;;;16.50;9.53;;;;;3.70;100401.00;;;;10413354;28;20205;-78
2020/12/09 12:15:57;;;;;;;16.27;8.90;;;;;3.80;100411.00;;;;10409016;28;20226;-79
2020/12/09 12:20:59;;;;;;;16.43;8.97;;;;;3.90;100394.00;;;;10415775;28;20190;-79
2020/12/09 12:26:01;;;;;;;15.07;8.97;;;;;4.10;100394.00;;;;10386572;28;20198;-78
2020/12/09 12:31:03;;;;;;;13.20;9.07;;;;;4.10;100404.00;;;;10376623;28;20553;-77
2020/12/09 12:36:10;;;;;;;13.00;8.83;;;;;4.00;100399.00;;;;10418683;28;20250;-77
2020/12/09 12:41:12;;;;;;;13.60;7.77;;;;;3.90;100404.00;;;;10409972;28;20222;-77
2020/12/09 12:46:14;;;;;;;14.50;8.73;;;;;4.00;100398.00;;;;10399141;28;20549;-77
2020/12/09 12:51:23;;;;;;;19.03;9.43;;;;;4.30;100402.00;;;;10417229;28;20290;-77
2020/12/09 12:56:26;;;;;;;14.43;8.80;;;;;4.40;100405.00;;;;10403620;28;20237;-77
2020/12/09 13:01:28;;;;;;;17.13;8.80;;;;;4.70;100411.00;;;;10424122;28;20191;-76
2020/12/09 13:06:30;;;;;;;15.03;8.30;;;;;4.60;100390.00;;;;10384821;28;20727;-78
2020/12/09 13:11:32;;;;;;;15.97;8.90;;;;;4.40;100391.00;;;;10380725;28;20620;-78
2020/12/09 13:16:34;;;;;;;14.83;8.90;;;;;4.30;100369.00;;;;10409408;28;20269;-77
2020/12/09 13:21:36;;;;;;;15.73;9.07;;;;;4.30;100366.00;;;;10398585;28;20187;-78
2020/12/09 13:26:42;;;;;;;16.20;8.27;;;;;4.30;100363.00;;;;10380956;28;20187;-77
2020/12/09 13:31:49;;;;;;;15.40;8.53;;;;;4.30;100347.00;;;;10405043;28;20190;-77
2020/12/09 13:36:54;;;;;;;15.73;8.47;;;;;4.30;100352.00;;;;10395350;28;20577;-78
2020/12/09 13:41:56;;;;;;;14.10;8.17;;;;;4.40;100352.00;;;;10410096;28;20672;-77
2020/12/09 13:46:58;;;;;;;16.87;8.63;;;;;4.40;100345.00;;;;10396692;28;20187;-78
2020/12/09 13:52:01;;;;;;;17.43;10.07;;;;;4.40;100344.00;;;;10407415;28;20241;-78
2020/12/09 13:57:04;;;;;;;15.80;8.53;;;;;4.50;100339.00;;;;10399793;28;20418;-79
2020/12/09 14:02:06;;;;;;;14.30;8.23;;;;;4.60;100345.00;;;;10384310;28;20686;-78
2020/12/09 14:07:08;;;;;;;16.93;9.50;;;;;4.60;100339.00;;;;10413813;28;20699;-78
2020/12/09 14:12:10;;;;;;;15.70;9.00;;;;;4.40;100361.00;;;;10387903;28;20214;-78
2020/12/09 14:17:12;;;;;;;15.27;9.10;;;;;4.30;100343.00;;;;10397402;28;20209;-78
2020/12/09 14:22:15;;;;;;;15.23;8.23;;;;;4.30;100357.00;;;;10399497;28;20206;-79
2020/12/09 14:27:17;;;;;;;13.17;8.10;;;;;4.20;100356.00;;;;10402733;28;20195;-79
2020/12/09 14:32:21;;;;;;;13.63;8.00;;;;;4.20;100359.00;;;;10385846;28;20195;-79
2020/12/09 14:37:23;;;;;;;12.93;8.13;;;;;4.10;100358.00;;;;10400789;28;20226;-79
2020/12/09 14:42:33;;;;;;;15.77;8.33;;;;;4.10;100358.00;;;;10408700;28;20653;-78
2020/12/09 14:47:35;;;;;;;14.67;8.23;;;;;4.10;100364.00;;;;10385199;28;20187;-78
2020/12/09 14:52:38;;;;;;;14.70;8.50;;;;;4.00;100364.00;;;;10383392;28;20252;-78
2020/12/09 14:57:41;;;;;;;14.00;8.80;;;;;4.00;100358.00;;;;10378559;28;20207;-78
2020/12/09 15:02:49;;;;;;;16.97;8.87;;;;;4.00;100361.00;;;;10393452;28;20290;-78
2020/12/09 15:07:52;;;;;;;14.80;9.37;;;;;4.00;100353.00;;;;10383796;28;20676;-78
2020/12/09 15:12:54;;;;;;;15.67;8.73;;;;;4.00;100366.00;;;;10378577;28;20277;-78
2020/12/09 15:17:56;;;;;;;17.10;9.03;;;;;3.90;100371.00;;;;10403354;28;20607;-79
2020/12/09 15:22:58;;;;;;;14.03;8.20;;;;;3.90;100362.00;;;;10410088;28;20222;-78
2020/12/09 15:28:01;;;;;;;13.47;8.53;;;;;3.90;100357.00;;;;10410376;28;20191;-78
2020/12/09 15:33:03;;;;;;;15.03;8.97;;;;;3.80;100352.00;;;;10394016;28;20191;-78
2020/12/09 15:38:05;;;;;;;17.83;10.20;;;;;3.80;100349.00;;;;10410244;28;20218;-78
2020/12/09 15:43:08;;;;;;;14.10;9.20;;;;;3.80;100348.00;;;;10409256;28;20530;-77
2020/12/09 15:48:10;;;;;;;15.83;10.27;;;;;3.80;100351.00;;;;10435919;28;20187;-78
2020/12/09 15:53:12;;;;;;;18.67;10.27;;;;;3.80;100362.00;;;;10395367;28;20215;-79
2020/12/09 15:58:15;;;;;;;15.63;10.30;;;;;3.80;100374.00;;;;10390457;28;20242;-79
2020/12/09 16:03:17;;;;;;;14.43;8.93;;;;;3.80;100379.00;;;;10399123;28;20981;-78
2020/12/09 16:08:22;;;;;;;17.30;10.23;;;;;3.80;100396.00;;;;10410456;28;20693;-79
2020/12/09 16:13:27;;;;;;;17.33;9.53;;;;;3.80;100398.00;;;;10386926;28;20218;-79
2020/12/09 16:18:30;;;;;;;18.73;9.80;;;;;3.80;100395.00;;;;10387898;28;20214;-77
2020/12/09 16:23:32;;;;;;;19.53;10.20;;;;;3.70;100382.00;;;;10426716;28;20255;-78
2020/12/09 16:28:34;;;;;;;18.93;10.97;;;;;3.70;100386.00;;;;10421367;28;20187;-78
2020/12/09 16:33:38;;;;;;;19.27;10.60;;;;;3.70;100399.00;;;;10402039;28;20195;-77
2020/12/09 16:38:41;;;;;;;19.80;12.13;;;;;3.70;100395.00;;;;10430083;28;20222;-77
2020/12/09 16:43:46;;;;;;;22.77;10.87;;;;;3.70;100402.00;;;;10402195;28;20191;-78
2020/12/09 16:48:48;;;;;;;22.33;12.40;;;;;3.70;100410.00;;;;10391009;28;20526;-77
2020/12/09 16:53:50;;;;;;;26.73;15.73;;;;;3.60;100403.00;;;;10400604;28;20222;-77
2020/12/09 16:58:53;;;;;;;30.80;18.17;;;;;3.60;100410.00;;;;10393462;28;20198;-77
2020/12/09 17:03:55;;;;;;;30.33;15.43;;;;;3.60;100413.00;;;;10429063;28;20540;-78
2020/12/09 17:08:58;;;;;;;25.07;15.40;;;;;3.60;100403.00;;;;10386168;28;20284;-78
2020/12/09 17:14:00;;;;;;;32.80;15.50;;;;;3.60;100412.00;;;;10422854;28;20261;-77
2020/12/09 17:19:05;;;;;;;25.03;15.07;;;;;3.70;100413.00;;;;10420212;28;20206;-77
2020/12/09 17:24:07;;;;;;;25.27;15.60;;;;;3.70;100409.00;;;;10389863;28;20198;-78
2020/12/09 17:29:09;;;;;;;28.33;15.03;;;;;3.70;100416.00;;;;10392160;28;20203;-78
2020/12/09 17:34:15;;;;;;;25.33;14.57;;;;;3.70;100424.00;;;;10435339;28;20226;-78
2020/12/09 17:39:18;;;;;;;24.83;15.67;;;;;3.80;100420.00;;;;10427223;28;20214;-78
2020/12/09 17:44:20;;;;;;;25.73;15.47;;;;;3.80;100413.00;;;;10415355;28;20222;-77
2020/12/09 17:49:22;;;;;;;24.67;15.17;;;;;3.80;100412.00;;;;10408926;28;20217;-77
2020/12/09 17:54:24;;;;;;;26.03;15.40;;;;;3.90;100415.00;;;;10400865;28;20269;-77
2020/12/09 17:59:27;;;;;;;25.90;15.40;;;;;3.90;100410.00;;;;10424400;28;20688;-77
2020/12/09 18:04:29;;;;;;;26.30;15.87;;;;;3.90;100407.00;;;;10422127;28;20214;-77
2020/12/09 18:09:31;;;;;;;26.63;16.53;;;;;3.90;100405.00;;;;10376889;28;20241;-77
2020/12/09 18:14:34;;;;;;;24.80;15.27;;;;;3.90;100406.00;;;;10418040;28;20272;-78
2020/12/09 18:19:36;;;;;;;28.10;14.43;;;;;3.90;100409.00;;;;10398665;28;20261;-77
2020/12/09 18:24:38;;;;;;;27.30;14.57;;;;;3.90;100406.00;;;;10400869;28;20202;-80
2020/12/09 18:29:40;;;;;;;23.70;13.07;;;;;3.90;100399.00;;;;10408316;28;20187;-79
2020/12/09 18:34:42;;;;;;;26.30;15.43;;;;;3.90;100406.00;;;;10407582;28;20218;-79
2020/12/09 18:39:45;;;;;;;26.50;14.83;;;;;3.90;100390.00;;;;10409959;28;20272;-78
2020/12/09 18:44:49;;;;;;;26.60;14.03;;;;;3.90;100401.00;;;;10399591;28;20289;-78
2020/12/09 18:49:51;;;;;;;23.53;14.63;;;;;3.90;100386.00;;;;10364147;28;20202;-78
2020/12/09 18:54:53;;;;;;;21.50;12.23;;;;;3.90;100390.00;;;;10380664;28;20206;-79
2020/12/09 18:59:55;;;;;;;21.40;13.37;;;;;3.90;100392.00;;;;10405557;28;20352;-79
2020/12/09 19:04:57;;;;;;;23.17;13.17;;;;;3.90;100376.00;;;;10430136;28;20195;-79
2020/12/09 19:09:59;;;;;;;22.23;13.60;;;;;3.80;100375.00;;;;10412802;28;20755;-80
2020/12/09 19:15:01;;;;;;;27.37;14.40;;;;;3.80;100385.00;;;;10408220;28;20252;-79
2020/12/09 19:20:08;;;;;;;22.83;12.03;;;;;3.80;100385.00;;;;10420503;28;20215;-79
2020/12/09 19:25:10;;;;;;;23.63;12.73;;;;;3.80;100394.00;;;;10417680;28;20784;-80
2020/12/09 19:30:13;;;;;;;23.87;12.23;;;;;3.80;100390.00;;;;10414014;28;20198;-79
2020/12/09 19:35:16;;;;;;;22.27;12.53;;;;;3.80;100396.00;;;;10399905;28;20208;-79
2020/12/09 19:40:18;;;;;;;25.20;13.67;;;;;3.80;100399.00;;;;10408823;28;20257;-79
2020/12/09 19:45:20;;;;;;;27.80;16.30;;;;;3.80;100392.00;;;;10421756;28;20194;-78
2020/12/09 19:50:23;;;;;;;31.50;16.20;;;;;3.80;100388.00;;;;10408406;28;20450;-79
2020/12/09 19:55:25;;;;;;;26.10;14.27;;;;;3.80;100391.00;;;;10407624;28;20198;-79
2020/12/09 20:00:27;;;;;;;29.20;15.93;;;;;3.80;100388.00;;;;10421518;28;20305;-80
2020/12/09 20:05:29;;;;;;;29.67;16.20;;;;;3.80;100403.00;;;;10388654;28;20199;-79
2020/12/09 20:10:31;;;;;;;23.83;14.47;;;;;3.80;100386.00;;;;10403156;28;20688;-79
2020/12/09 20:15:33;;;;;;;27.17;14.50;;;;;3.80;100391.00;;;;10406944;28;20199;-79
2020/12/09 20:20:36;;;;;;;26.00;14.70;;;;;3.80;100396.00;;;;10431509;28;20226;-79
2020/12/09 20:25:38;;;;;;;22.87;12.77;;;;;3.80;100396.00;;;;10418295;28;20229;-79
2020/12/09 20:30:40;;;;;;;24.33;13.73;;;;;3.80;100392.00;;;;10437327;28;20209;-79
2020/12/09 20:35:43;;;;;;;18.27;11.20;;;;;3.80;100383.00;;;;10441194;28;20281;-79
2020/12/09 20:40:47;;;;;;;24.13;13.43;;;;;3.80;100392.00;;;;10427827;28;20214;-78
2020/12/09 20:45:49;;;;;;;22.53;12.53;;;;;3.80;100388.00;;;;10418983;28;20210;-79
2020/12/09 20:50:53;;;;;;;23.30;11.27;;;;;3.80;100390.00;;;;10389159;28;20202;-78
2020/12/09 20:55:55;;;;;;;19.47;13.23;;;;;3.80;100396.00;;;;10421665;28;20205;-79
2020/12/09 21:00:57;;;;;;;21.83;11.50;;;;;3.80;100390.00;;;;10397382;28;20249;-78
2020/12/09 21:05:59;;;;;;;21.63;12.50;;;;;3.80;100389.00;;;;10416886;28;20203;-79
2020/12/09 21:11:03;;;;;;;20.87;12.67;;;;;3.70;100384.00;;;;10429668;28;20689;-78
2020/12/09 21:16:16;;;;;;;21.47;11.57;;;;;3.70;100381.00;;;;10402690;28;20242;-79
2020/12/09 21:21:21;;;;;;;16.93;10.93;;;;;3.70;100374.00;;;;10413423;28;20331;-79
2020/12/09 21:26:25;;;;;;;19.90;11.63;;;;;3.70;100368.00;;;;10409939;28;20578;-78
2020/12/09 21:31:27;;;;;;;23.10;11.43;;;;;3.70;100366.00;;;;10405243;28;20560;-78
2020/12/09 21:36:29;;;;;;;18.67;11.83;;;;;3.70;100362.00;;;;10394224;28;20226;-79
2020/12/09 21:41:32;;;;;;;22.77;12.40;;;;;3.70;100372.00;;;;10427313;28;20191;-79
2020/12/09 21:46:44;;;;;;;23.03;12.70;;;;;3.60;100349.00;;;;10426132;28;20206;-78
2020/12/09 21:51:47;;;;;;;24.33;13.47;;;;;3.60;100349.00;;;;10415358;28;20194;-79
2020/12/09 21:56:49;;;;;;;20.80;11.97;;;;;3.60;100342.00;;;;10398992;28;20628;-78
2020/12/09 22:01:51;;;;;;;17.47;10.60;;;;;3.60;100335.00;;;;10390954;28;20592;-78
2020/12/09 22:06:53;;;;;;;16.23;9.97;;;;;3.60;100341.00;;;;10425258;28;20282;-78
2020/12/09 22:11:56;;;;;;;17.23;10.53;;;;;3.60;100332.00;;;;10393426;28;20273;-78
2020/12/09 22:16:58;;;;;;;17.77;10.50;;;;;3.60;100333.00;;;;10407269;28;20283;-79
2020/12/09 22:22:00;;;;;;;18.50;10.47;;;;;3.60;100335.00;;;;10390108;28;20257;-79
2020/12/09 22:27:03;;;;;;;21.27;11.17;;;;;3.60;100315.00;;;;10425974;28;20202;-79
2020/12/09 22:32:05;;;;;;;17.67;9.90;;;;;3.50;100318.00;;;;10417786;28;20244;-79
2020/12/09 22:37:08;;;;;;;20.13;10.90;;;;;3.30;100301.00;;;;10404347;28;20219;-78
2020/12/09 22:42:10;;;;;;;16.50;10.03;;;;;3.10;100295.00;;;;10416868;28;20724;-79
2020/12/09 22:47:13;;;;;;;19.67;11.13;;;;;2.90;100284.00;;;;10411327;28;20677;-79
2020/12/09 22:52:16;;;;;;;17.30;10.23;;;;;2.60;100274.00;;;;10408634;28;20198;-78
2020/12/09 22:57:24;;;;;;;18.77;10.73;;;;;2.50;100274.00;;;;10421881;28;20300;-78
2020/12/09 23:02:27;;;;;;;17.80;11.07;;;;;2.30;100285.00;;;;10418180;28;20680;-78
2020/12/09 23:07:29;;;;;;;22.73;12.23;;;;;2.10;100281.00;;;;10385820;28;20213;-78
2020/12/09 23:12:31;;;;;;;20.73;12.60;;;;;2.00;100282.00;;;;10391104;28;20210;-78
2020/12/09 23:17:34;;;;;;;22.03;11.97;;;;;1.90;100271.00;;;;10401004;28;20565;-79
2020/12/09 23:22:36;;;;;;;20.67;12.13;;;;;1.80;100251.00;;;;10398886;28;20292;-79
2020/12/09 23:27:38;;;;;;;27.27;12.83;;;;;1.70;100265.00;;;;10422941;28;20216;-78
2020/12/09 23:32:40;;;;;;;21.57;13.10;;;;;1.70;100261.00;;;;10428180;28;20191;-78
2020/12/09 23:37:43;;;;;;;23.83;12.97;;;;;1.60;100257.00;;;;10404913;28;20268;-78
2020/12/09 23:42:45;;;;;;;19.50;12.07;;;;;1.60;100246.00;;;;10413751;28;20203;-79
2020/12/09 23:47:47;;;;;;;21.10;12.63;;;;;1.60;100240.00;;;;10415789;28;20194;-78
2020/12/09 23:52:50;;;;;;;25.83;13.20;;;;;1.50;100234.00;;;;10423248;28;20202;-79
2020/12/09 23:57:53;;;;;;;23.53;12.37;;;;;1.50;100229.00;;;;10413536;28;20219;-79
